F/V Challenger — FIOS — position and weather

sailwx.info

Track history (hours):
 
Tides and Currents Weather Stations Pressure Air Temp Water Temp Dewpoint Dewpoint Depression Visibility Wind Speed Wind Dir Waves Ship Positions

F/V Challenger

Last reported at 2018-Feb-14 14:53 UTC. Time now 2018-Jun-19 04:25 UTC.
Position N 46°30' W 001°47'.
Warning: this ship's position is months out of date.

Length 17 m.

Type: Fishing. MMSI: 228120000.

Date/timePositionNaut miles runAvg speedWind from/ knotsBaromVisibWave heightAir tempDewpointWater temp
2018-Feb-14 14:53N 46°30' W 001°47'0 0.0
2018-Feb-14 14:30N 46°30' W 001°47'0 0.0
2018-Feb-14 14:00N 46°30' W 001°47'0 0.0
2018-Feb-14 13:30N 46°30' W 001°47'0 0.0
2018-Feb-14 13:00N 46°30' W 001°47'0 0.0
2018-Feb-14 12:30N 46°30' W 001°47'0 0.0
2018-Feb-14 12:00N 46°30' W 001°47'0 0.0
2018-Feb-14 11:30N 46°30' W 001°47'0 0.0
2018-Feb-14 11:00N 46°30' W 001°47'0 0.0
2018-Feb-14 10:30N 46°30' W 001°47'0 0.0
2018-Feb-14 10:00N 46°30' W 001°47'0 0.0
2018-Feb-14 09:31N 46°30' W 001°47'0 0.0
2018-Feb-14 09:00N 46°30' W 001°47'0 0.0
2018-Feb-14 08:30N 46°30' W 001°47'0 0.0
2018-Feb-14 08:00N 46°30' W 001°47'0 0.0
2018-Feb-14 07:30N 46°30' W 001°47'0 0.0
2018-Feb-14 07:00N 46°30' W 001°47'0 0.0
2018-Feb-14 06:30N 46°30' W 001°47'0 0.0
2018-Feb-14 06:00N 46°30' W 001°47'0 0.0
2018-Feb-14 05:31N 46°30' W 001°47'0 0.0
2018-Feb-14 05:01N 46°30' W 001°47'0 0.0
2018-Feb-14 04:30N 46°30' W 001°47'0 0.0
2018-Feb-14 04:00N 46°30' W 001°47'0 0.0
2018-Feb-14 03:31N 46°30' W 001°47'0 0.0
2018-Feb-14 03:00N 46°30' W 001°47'0 0.0
2018-Feb-14 02:30N 46°30' W 001°47'0 0.0
2018-Feb-14 02:00N 46°30' W 001°47'0 0.0
2018-Feb-14 01:31N 46°30' W 001°47'0 0.0
2018-Feb-14 01:00N 46°30' W 001°47'0 0.0
2018-Feb-14 00:30N 46°30' W 001°47'0 0.0
2018-Feb-14 00:00N 46°30' W 001°47'0 0.0
2018-Feb-13 23:30N 46°30' W 001°47'0 0.0
2018-Feb-13 23:01N 46°30' W 001°47'0 0.0
2018-Feb-13 22:30N 46°30' W 001°47'0 0.0
2018-Feb-13 22:00N 46°30' W 001°47'0 0.0
2018-Feb-13 21:30N 46°30' W 001°47'0 0.0
2018-Feb-13 21:01N 46°30' W 001°47'0 0.0
2018-Feb-13 20:30N 46°30' W 001°47'0 0.0
2018-Feb-13 20:00N 46°30' W 001°47'0 0.0
2018-Feb-13 19:30N 46°30' W 001°47'0 0.0
2018-Feb-13 19:00N 46°30' W 001°47'0 0.0
2018-Feb-13 18:30N 46°30' W 001°47'0 0.0
2018-Feb-13 18:00N 46°30' W 001°47'0 0.0
2018-Feb-13 17:30N 46°30' W 001°47'0 0.0
2018-Feb-13 17:00N 46°30' W 001°47'0 0.0
2018-Feb-13 16:30N 46°30' W 001°47'0 0.0
2018-Feb-13 16:00N 46°30' W 001°47'0 0.0
2018-Feb-13 15:30N 46°30' W 001°47'0 0.0
2018-Feb-13 15:00N 46°30' W 001°47'0 0.0
2018-Feb-13 14:31N 46°30' W 001°47'0 0.0
2018-Feb-13 14:00N 46°30' W 001°47'0 0.0
2018-Feb-13 13:30N 46°30' W 001°47'0 0.0
2018-Feb-13 13:00N 46°30' W 001°47'0 0.0
2018-Feb-13 12:30N 46°30' W 001°47'0 0.0
2018-Feb-13 12:00N 46°30' W 001°47'0 0.0
2018-Feb-13 11:30N 46°30' W 001°47'0 0.0
2018-Feb-13 11:00N 46°30' W 001°47'0 0.0
2018-Feb-13 10:30N 46°30' W 001°47'0 0.0
2018-Feb-13 10:00N 46°30' W 001°47'0 0.0
2018-Feb-13 09:30N 46°30' W 001°47'0 0.0
2018-Feb-13 09:00N 46°30' W 001°47'0 0.0
2018-Feb-13 08:30N 46°30' W 001°47'0 0.0
2018-Feb-13 02:00N 46°30' W 001°47'0 0.0
2018-Feb-13 01:31N 46°30' W 001°47'0 0.1
2018-Feb-13 01:00N 46°30' W 001°47'0 0.0
2018-Feb-13 00:30N 46°30' W 001°47'0 0.0
2018-Feb-13 00:01N 46°30' W 001°47'0 0.4
2018-Feb-12 23:30N 46°30' W 001°47'0 0.0
2018-Feb-12 23:00N 46°30' W 001°47'2 4.8
2018-Feb-12 22:30N 46°28' W 001°49'4 7.8
2018-Feb-12 22:00N 46°27' W 001°54'4 7.7
2018-Feb-12 21:30N 46°26' W 001°59'4 7.6
2018-Feb-12 21:00N 46°25' W 002°05'8 0.2
2018-Feb-11 00:27N 46°18' W 002°11'3 5.9
2018-Feb-10 23:57N 46°19' W 002°07'4 7.9
2018-Feb-10 23:30N 46°20' W 002°03'4 7.8
2018-Feb-10 23:00N 46°22' W 001°58'4 7.7
2018-Feb-10 22:30N 46°25' W 001°53'4 7.8
2018-Feb-10 22:00N 46°27' W 001°49'3 5.4
2018-Feb-10 21:31N 46°30' W 001°48'  
2018-Feb-06 11:31N 46°30' W 001°47'0 0.0
2018-Feb-06 11:30N 46°30' W 001°47'0 0.0
2018-Feb-06 11:00N 46°30' W 001°47'0 0.0
2018-Feb-06 10:30N 46°30' W 001°47'0 0.0
2018-Feb-06 09:30N 46°30' W 001°47'0 0.0
2018-Feb-06 09:00N 46°30' W 001°47'0 0.1
2018-Feb-06 08:00N 46°30' W 001°47'0 0.1
2018-Feb-06 07:30N 46°30' W 001°47'0 0.0
2018-Feb-06 07:00N 46°30' W 001°47'0 0.0
2018-Feb-06 06:30N 46°30' W 001°47'0 0.0
2018-Feb-06 06:00N 46°30' W 001°47'0 0.0
2018-Feb-06 05:00N 46°30' W 001°47'0 0.0
2018-Feb-06 04:30N 46°30' W 001°47'0 0.0
2018-Feb-06 04:00N 46°30' W 001°47'0 0.0
2018-Feb-06 03:30N 46°30' W 001°47'0 0.0
2018-Feb-06 02:30N 46°30' W 001°47'0 0.0
2018-Feb-06 01:30N 46°30' W 001°47'0 0.0
2018-Feb-06 00:30N 46°30' W 001°47'0 0.0
2018-Feb-06 00:00N 46°30' W 001°47'0 0.0
2018-Feb-05 23:30N 46°30' W 001°47'0 0.0
2018-Feb-05 23:00N 46°30' W 001°47'0 0.3
2018-Feb-05 22:30N 46°30' W 001°47'0 0.0
2018-Feb-05 22:00N 46°30' W 001°47'2 3.8
2018-Feb-05 21:30N 46°28' W 001°48'5 9.1
2018-Feb-05 21:00N 46°26' W 001°53'13 8.6
2018-Feb-05 19:30N 46°20' W 002°10'  
Track history (hours):
 
Tides and Currents Weather Stations Pressure Air Temp Water Temp Dewpoint Dewpoint Depression Visibility Wind Speed Wind Dir Waves Ship Positions

F/V Challenger

Last reported at 2018-Feb-14 14:53 UTC. Time now 2018-Jun-19 04:25 UTC.
Position N 46°30' W 001°47'.
Warning: this ship's position is months out of date.

Length 17 m.

Type: Fishing. MMSI: 228120000.

Date/timePositionNaut miles runAvg speedWind from/ knotsBaromVisibWave heightAir tempDewpointWater temp
2018-Feb-14 14:53N 46°30' W 001°47'0 0.0
2018-Feb-14 14:30N 46°30' W 001°47'0 0.0
2018-Feb-14 14:00N 46°30' W 001°47'0 0.0
2018-Feb-14 13:30N 46°30' W 001°47'0 0.0
2018-Feb-14 13:00N 46°30' W 001°47'0 0.0
2018-Feb-14 12:30N 46°30' W 001°47'0 0.0
2018-Feb-14 12:00N 46°30' W 001°47'0 0.0
2018-Feb-14 11:30N 46°30' W 001°47'0 0.0
2018-Feb-14 11:00N 46°30' W 001°47'0 0.0
2018-Feb-14 10:30N 46°30' W 001°47'0 0.0
2018-Feb-14 10:00N 46°30' W 001°47'0 0.0
2018-Feb-14 09:31N 46°30' W 001°47'0 0.0
2018-Feb-14 09:00N 46°30' W 001°47'0 0.0
2018-Feb-14 08:30N 46°30' W 001°47'0 0.0
2018-Feb-14 08:00N 46°30' W 001°47'0 0.0
2018-Feb-14 07:30N 46°30' W 001°47'0 0.0
2018-Feb-14 07:00N 46°30' W 001°47'0 0.0
2018-Feb-14 06:30N 46°30' W 001°47'0 0.0
2018-Feb-14 06:00N 46°30' W 001°47'0 0.0
2018-Feb-14 05:31N 46°30' W 001°47'0 0.0
2018-Feb-14 05:01N 46°30' W 001°47'0 0.0
2018-Feb-14 04:30N 46°30' W 001°47'0 0.0
2018-Feb-14 04:00N 46°30' W 001°47'0 0.0
2018-Feb-14 03:31N 46°30' W 001°47'0 0.0
2018-Feb-14 03:00N 46°30' W 001°47'0 0.0
2018-Feb-14 02:30N 46°30' W 001°47'0 0.0
2018-Feb-14 02:00N 46°30' W 001°47'0 0.0
2018-Feb-14 01:31N 46°30' W 001°47'0 0.0
2018-Feb-14 01:00N 46°30' W 001°47'0 0.0
2018-Feb-14 00:30N 46°30' W 001°47'0 0.0
2018-Feb-14 00:00N 46°30' W 001°47'0 0.0
2018-Feb-13 23:30N 46°30' W 001°47'0 0.0
2018-Feb-13 23:01N 46°30' W 001°47'0 0.0
2018-Feb-13 22:30N 46°30' W 001°47'0 0.0
2018-Feb-13 22:00N 46°30' W 001°47'0 0.0
2018-Feb-13 21:30N 46°30' W 001°47'0 0.0
2018-Feb-13 21:01N 46°30' W 001°47'0 0.0
2018-Feb-13 20:30N 46°30' W 001°47'0 0.0
2018-Feb-13 20:00N 46°30' W 001°47'0 0.0
2018-Feb-13 19:30N 46°30' W 001°47'0 0.0
2018-Feb-13 19:00N 46°30' W 001°47'0 0.0
2018-Feb-13 18:30N 46°30' W 001°47'0 0.0
2018-Feb-13 18:00N 46°30' W 001°47'0 0.0
2018-Feb-13 17:30N 46°30' W 001°47'0 0.0
2018-Feb-13 17:00N 46°30' W 001°47'0 0.0
2018-Feb-13 16:30N 46°30' W 001°47'0 0.0
2018-Feb-13 16:00N 46°30' W 001°47'0 0.0
2018-Feb-13 15:30N 46°30' W 001°47'0 0.0
2018-Feb-13 15:00N 46°30' W 001°47'0 0.0
2018-Feb-13 14:31N 46°30' W 001°47'0 0.0
2018-Feb-13 14:00N 46°30' W 001°47'0 0.0
2018-Feb-13 13:30N 46°30' W 001°47'0 0.0
2018-Feb-13 13:00N 46°30' W 001°47'0 0.0
2018-Feb-13 12:30N 46°30' W 001°47'0 0.0
2018-Feb-13 12:00N 46°30' W 001°47'0 0.0
2018-Feb-13 11:30N 46°30' W 001°47'0 0.0
2018-Feb-13 11:00N 46°30' W 001°47'0 0.0
2018-Feb-13 10:30N 46°30' W 001°47'0 0.0
2018-Feb-13 10:00N 46°30' W 001°47'0 0.0
2018-Feb-13 09:30N 46°30' W 001°47'0 0.0
2018-Feb-13 09:00N 46°30' W 001°47'0 0.0
2018-Feb-13 08:30N 46°30' W 001°47'0 0.0
2018-Feb-13 02:00N 46°30' W 001°47'0 0.0
2018-Feb-13 01:31N 46°30' W 001°47'0 0.1
2018-Feb-13 01:00N 46°30' W 001°47'0 0.0
2018-Feb-13 00:30N 46°30' W 001°47'0 0.0
2018-Feb-13 00:01N 46°30' W 001°47'0 0.4
2018-Feb-12 23:30N 46°30' W 001°47'0 0.0
2018-Feb-12 23:00N 46°30' W 001°47'2 4.8
2018-Feb-12 22:30N 46°28' W 001°49'4 7.8
2018-Feb-12 22:00N 46°27' W 001°54'4 7.7
2018-Feb-12 21:30N 46°26' W 001°59'4 7.6
2018-Feb-12 21:00N 46°25' W 002°05'8 0.2
2018-Feb-11 00:27N 46°18' W 002°11'3 5.9
2018-Feb-10 23:57N 46°19' W 002°07'4 7.9
2018-Feb-10 23:30N 46°20' W 002°03'4 7.8
2018-Feb-10 23:00N 46°22' W 001°58'4 7.7
2018-Feb-10 22:30N 46°25' W 001°53'4 7.8
2018-Feb-10 22:00N 46°27' W 001°49'3 5.4
2018-Feb-10 21:31N 46°30' W 001°48'  
2018-Feb-06 11:31N 46°30' W 001°47'0 0.0
2018-Feb-06 11:30N 46°30' W 001°47'0 0.0
2018-Feb-06 11:00N 46°30' W 001°47'0 0.0
2018-Feb-06 10:30N 46°30' W 001°47'0 0.0
2018-Feb-06 09:30N 46°30' W 001°47'0 0.0
2018-Feb-06 09:00N 46°30' W 001°47'0 0.1
2018-Feb-06 08:00N 46°30' W 001°47'0 0.1
2018-Feb-06 07:30N 46°30' W 001°47'0 0.0
2018-Feb-06 07:00N 46°30' W 001°47'0 0.0
2018-Feb-06 06:30N 46°30' W 001°47'0 0.0
2018-Feb-06 06:00N 46°30' W 001°47'0 0.0
2018-Feb-06 05:00N 46°30' W 001°47'0 0.0
2018-Feb-06 04:30N 46°30' W 001°47'0 0.0
2018-Feb-06 04:00N 46°30' W 001°47'0 0.0
2018-Feb-06 03:30N 46°30' W 001°47'0 0.0
2018-Feb-06 02:30N 46°30' W 001°47'0 0.0
2018-Feb-06 01:30N 46°30' W 001°47'0 0.0
2018-Feb-06 00:30N 46°30' W 001°47'0 0.0
2018-Feb-06 00:00N 46°30' W 001°47'0 0.0
2018-Feb-05 23:30N 46°30' W 001°47'0 0.0
2018-Feb-05 23:00N 46°30' W 001°47'0 0.3
2018-Feb-05 22:30N 46°30' W 001°47'0 0.0
2018-Feb-05 22:00N 46°30' W 001°47'2 3.8
2018-Feb-05 21:30N 46°28' W 001°48'5 9.1
2018-Feb-05 21:00N 46°26' W 001°53'13 8.6
2018-Feb-05 19:30N 46°20' W 002°10'  

Dump ship's entire track history